createdAt,value
2019-06-26T00:00:21.414Z,22.10
2019-06-26T00:02:51.228Z,22.10
2019-06-26T00:05:21.386Z,22.10
2019-06-26T00:07:51.212Z,22.10
2019-06-26T00:10:21.220Z,22.10
2019-06-26T00:12:51.110Z,22.10
2019-06-26T00:15:21.355Z,22.00
2019-06-26T00:17:51.493Z,22.00
2019-06-26T00:20:21.456Z,21.90
2019-06-26T00:22:51.358Z,22.00
2019-06-26T00:25:21.236Z,21.90
2019-06-26T00:27:51.223Z,21.80
2019-06-26T00:30:21.737Z,21.90
2019-06-26T00:32:51.595Z,21.90
2019-06-26T00:35:21.474Z,21.90
2019-06-26T00:37:51.405Z,21.80
2019-06-26T00:40:21.301Z,21.70
2019-06-26T00:45:20.493Z,21.70
2019-06-26T00:47:50.350Z,21.70
2019-06-26T00:50:20.392Z,21.70
2019-06-26T00:52:50.172Z,21.70
2019-06-26T00:55:20.450Z,21.70
2019-06-26T00:57:50.427Z,21.70
2019-06-26T01:00:25.215Z,21.70
2019-06-26T01:02:55.015Z,21.70
2019-06-26T01:05:24.828Z,21.70
2019-06-26T01:07:54.637Z,21.70
2019-06-26T01:10:24.724Z,21.60
2019-06-26T01:12:54.614Z,21.60
2019-06-26T01:15:24.511Z,21.50
2019-06-26T01:17:54.468Z,21.50
2019-06-26T01:20:24.273Z,21.50
2019-06-26T01:22:54.141Z,21.50
2019-06-26T01:25:23.952Z,21.50
2019-06-26T01:27:53.768Z,21.50
2019-06-26T01:30:23.778Z,21.50
2019-06-26T01:32:53.629Z,21.50
2019-06-26T01:35:23.442Z,21.40
2019-06-26T01:37:53.360Z,21.40
2019-06-26T01:40:23.476Z,21.40
2019-06-26T01:42:53.344Z,20.70
2019-06-26T01:45:23.477Z,21.40
2019-06-26T01:47:53.299Z,21.30
2019-06-26T01:50:23.088Z,21.30
2019-06-26T01:52:52.892Z,21.30
2019-06-26T01:55:22.775Z,21.20
2019-06-26T01:57:52.662Z,21.20
2019-06-26T02:00:22.925Z,21.20
2019-06-26T02:02:52.945Z,21.20
2019-06-26T02:05:22.797Z,21.20
2019-06-26T02:07:52.673Z,21.20
2019-06-26T02:10:22.665Z,21.20
2019-06-26T02:12:52.553Z,21.20
2019-06-26T02:15:22.502Z,21.10
2019-06-26T02:17:52.380Z,21.10
2019-06-26T02:20:22.172Z,21.10
2019-06-26T02:22:52.062Z,21.10
2019-06-26T02:25:22.017Z,21.10
2019-06-26T02:27:52.089Z,21.10
2019-06-26T02:32:51.348Z,21.00
2019-06-26T02:35:21.161Z,21.00
2019-06-26T02:40:21.379Z,20.90
2019-06-26T02:42:51.263Z,20.90
2019-06-26T02:45:21.233Z,20.90
2019-06-26T02:47:51.309Z,20.90
2019-06-26T02:50:21.181Z,20.80
2019-06-26T02:52:50.990Z,20.80
2019-06-26T02:55:20.801Z,20.70
2019-06-26T02:57:50.706Z,20.80
2019-06-26T03:00:20.521Z,20.70
2019-06-26T03:02:50.419Z,20.70
2019-06-26T03:07:49.654Z,20.70
2019-06-26T03:10:19.598Z,20.70
2019-06-26T03:12:49.517Z,20.70
2019-06-26T03:15:19.612Z,20.60
2019-06-26T03:17:55.455Z,20.60
2019-06-26T03:20:24.057Z,20.60
2019-06-26T03:22:53.914Z,20.70
2019-06-26T03:25:23.744Z,20.70
2019-06-26T03:30:23.000Z,20.70
2019-06-26T03:32:52.911Z,20.70
2019-06-26T03:35:22.708Z,20.70
2019-06-26T03:37:52.602Z,20.70
2019-06-26T03:40:22.526Z,20.70
2019-06-26T03:42:52.515Z,20.80
2019-06-26T03:45:26.214Z,20.80
2019-06-26T03:47:54.077Z,20.80
2019-06-26T03:52:56.358Z,20.80
2019-06-26T03:55:26.238Z,20.90
2019-06-26T03:57:57.045Z,20.90
2019-06-26T04:00:34.752Z,20.90
2019-06-26T04:03:04.673Z,20.90
2019-06-26T04:05:34.877Z,21.00
2019-06-26T04:08:05.254Z,21.10
2019-06-26T04:10:35.307Z,21.10
2019-06-26T04:13:05.556Z,21.10
2019-06-26T04:15:42.148Z,21.20
2019-06-26T04:18:07.031Z,21.20
2019-06-26T04:23:06.204Z,21.30
2019-06-26T04:25:38.146Z,21.40
2019-06-26T04:28:07.668Z,21.50
2019-06-26T04:30:37.489Z,21.60
2019-06-26T04:33:07.301Z,21.70
2019-06-26T04:35:37.195Z,21.80
2019-06-26T04:38:07.114Z,22.00
2019-06-26T04:40:36.921Z,22.00
2019-06-26T04:43:06.737Z,22.30
2019-06-26T04:45:36.608Z,22.30
2019-06-26T04:48:07.447Z,22.40
2019-06-26T04:50:37.460Z,22.70
2019-06-26T04:53:07.345Z,22.80
2019-06-26T04:55:37.148Z,23.00
2019-06-26T04:58:07.329Z,23.20
2019-06-26T05:00:37.142Z,23.50
2019-06-26T05:03:07.062Z,23.80
2019-06-26T05:05:40.009Z,24.10
2019-06-26T05:08:08.778Z,24.30
2019-06-26T05:10:38.780Z,24.50
2019-06-26T05:13:08.597Z,24.80
2019-06-26T05:15:38.446Z,24.90
2019-06-26T05:18:08.565Z,25.20
2019-06-26T05:20:38.460Z,25.30
2019-06-26T05:23:08.397Z,25.50
2019-06-26T05:28:08.581Z,26.00
2019-06-26T05:33:08.144Z,26.20
2019-06-26T05:35:37.961Z,26.30
2019-06-26T05:40:36.991Z,26.30
2019-06-26T05:43:06.880Z,26.40
2019-06-26T05:45:36.779Z,26.60
2019-06-26T05:48:06.656Z,26.70
2019-06-26T05:50:36.724Z,26.80
2019-06-26T05:53:06.613Z,27.00
2019-06-26T05:55:36.521Z,27.20
2019-06-26T05:58:06.357Z,27.30
2019-06-26T06:00:36.326Z,27.30
2019-06-26T06:03:06.191Z,27.30
2019-06-26T06:08:05.418Z,27.70
2019-06-26T06:10:35.413Z,27.90
2019-06-26T06:13:05.286Z,27.80
2019-06-26T06:15:35.161Z,28.20
2019-06-26T06:18:05.170Z,28.80
2019-06-26T06:20:38.314Z,29.80
2019-06-26T06:23:08.333Z,31.20
2019-06-26T06:25:38.188Z,32.40
2019-06-26T06:28:08.116Z,32.90
2019-06-26T06:30:38.001Z,32.80
2019-06-26T06:33:07.886Z,33.30
2019-06-26T06:35:37.804Z,33.30
2019-06-26T06:38:07.690Z,33.30
2019-06-26T06:45:36.101Z,33.70
2019-06-26T06:53:04.646Z,33.90
2019-06-26T06:55:34.601Z,35.10
2019-06-26T06:58:05.157Z,35.80
2019-06-26T07:03:04.378Z,34.90
2019-06-26T07:05:34.285Z,34.60
2019-06-26T07:08:04.521Z,34.70
2019-06-26T07:10:34.493Z,35.60
2019-06-26T07:13:04.376Z,35.50
2019-06-26T07:15:34.584Z,35.90
2019-06-26T07:18:04.557Z,36.60
2019-06-26T07:20:46.345Z,36.20
2019-06-26T07:25:45.797Z,36.60
2019-06-26T07:28:15.706Z,37.10
2019-06-26T07:30:45.630Z,37.20
2019-06-26T07:33:15.442Z,37.60
2019-06-26T07:35:45.277Z,37.50
2019-06-26T07:38:17.021Z,36.90
2019-06-26T07:40:46.900Z,36.20
2019-06-26T07:43:16.914Z,36.00
2019-06-26T07:45:47.001Z,35.80
2019-06-26T07:48:17.164Z,35.60
2019-06-26T07:50:47.074Z,37.70
2019-06-26T07:53:17.633Z,35.30
2019-06-26T07:55:47.604Z,36.80
2019-06-26T07:58:17.493Z,36.70
2019-06-26T08:00:47.660Z,37.00
2019-06-26T08:03:17.539Z,37.20
2019-06-26T08:05:47.450Z,36.90
2019-06-26T08:08:17.416Z,36.60
2019-06-26T08:10:47.340Z,36.60
2019-06-26T08:13:17.282Z,36.20
2019-06-26T08:15:47.246Z,34.90
2019-06-26T08:18:17.205Z,35.40
2019-06-26T08:23:18.333Z,37.00
2019-06-26T08:25:48.229Z,36.40
2019-06-26T08:28:18.052Z,36.10
2019-06-26T08:30:47.941Z,35.90
2019-06-26T08:33:17.763Z,36.50
2019-06-26T08:35:47.696Z,37.10
2019-06-26T08:40:46.841Z,36.80
2019-06-26T08:45:45.969Z,37.40
2019-06-26T08:48:23.190Z,37.40
2019-06-26T08:50:47.332Z,37.70
2019-06-26T08:55:48.861Z,37.00
2019-06-26T08:58:18.748Z,36.30
2019-06-26T09:05:48.688Z,33.80
2019-06-26T09:08:19.028Z,33.60
2019-06-26T09:10:49.044Z,33.80
2019-06-26T09:13:18.917Z,33.80
2019-06-26T09:15:50.128Z,33.30
2019-06-26T09:20:51.276Z,33.00
2019-06-26T09:25:50.573Z,32.90
2019-06-26T09:28:20.473Z,33.00
2019-06-26T09:30:50.338Z,32.70
2019-06-26T09:33:20.221Z,32.70
2019-06-26T09:35:50.055Z,32.70
2019-06-26T09:38:19.864Z,32.70
2019-06-26T09:40:49.664Z,32.70
2019-06-26T09:43:19.487Z,32.90
2019-06-26T09:45:49.391Z,32.90
2019-06-26T09:48:19.371Z,32.80
2019-06-26T09:50:49.410Z,32.90
2019-06-26T09:53:19.296Z,33.00
2019-06-26T09:55:49.295Z,33.10
2019-06-26T09:58:19.160Z,33.30
2019-06-26T10:00:49.061Z,33.30
2019-06-26T10:03:18.912Z,33.00
2019-06-26T10:08:17.993Z,32.90
2019-06-26T10:10:47.897Z,32.60
2019-06-26T10:13:17.747Z,32.60
2019-06-26T10:15:47.669Z,32.70
2019-06-26T10:20:46.840Z,32.50
2019-06-26T10:28:15.326Z,32.60
2019-06-26T10:30:45.240Z,32.70
2019-06-26T10:33:15.301Z,32.70
2019-06-26T10:35:45.241Z,32.90
2019-06-26T10:40:44.383Z,33.10
2019-06-26T10:43:14.180Z,33.10
2019-06-26T10:48:13.749Z,32.90
2019-06-26T10:50:51.882Z,32.50
2019-06-26T10:53:15.085Z,32.70
2019-06-26T10:55:44.885Z,32.70
2019-06-26T10:58:14.780Z,32.60
2019-06-26T11:00:44.749Z,32.70
2019-06-26T11:03:14.634Z,33.00
2019-06-26T11:05:44.525Z,32.90
2019-06-26T11:08:14.434Z,33.00
2019-06-26T11:10:44.239Z,32.40
2019-06-26T11:13:14.053Z,32.40
2019-06-26T11:15:43.949Z,32.70
2019-06-26T11:18:13.846Z,33.00
2019-06-26T11:20:43.665Z,33.10
2019-06-26T11:23:13.646Z,33.40
2019-06-26T11:30:43.833Z,33.40
2019-06-26T11:35:42.994Z,33.50
2019-06-26T11:38:12.966Z,33.40
2019-06-26T11:40:46.069Z,33.50
2019-06-26T11:43:16.147Z,33.50
2019-06-26T11:48:15.285Z,33.50
2019-06-26T11:58:13.640Z,33.50
2019-06-26T12:00:43.550Z,33.40
2019-06-26T12:03:13.541Z,32.90
2019-06-26T12:05:43.492Z,32.70
2019-06-26T12:08:13.626Z,32.70
2019-06-26T12:10:43.593Z,32.80
2019-06-26T12:13:13.823Z,33.20
2019-06-26T12:15:43.890Z,33.30
2019-06-26T12:18:14.059Z,33.30
2019-06-26T12:23:15.865Z,33.10
2019-06-26T12:25:45.776Z,33.10
2019-06-26T12:28:15.595Z,33.10
2019-06-26T12:30:45.541Z,32.90
2019-06-26T12:35:45.354Z,32.40
2019-06-26T12:38:15.673Z,32.60
2019-06-26T12:40:45.613Z,32.90
2019-06-26T12:43:15.810Z,32.90
2019-06-26T12:45:45.711Z,32.80
2019-06-26T12:48:16.582Z,32.90
2019-06-26T12:50:46.586Z,33.00
2019-06-26T12:53:16.404Z,32.90
2019-06-26T12:55:46.284Z,32.90
2019-06-26T12:58:19.625Z,33.00
2019-06-26T13:00:47.662Z,32.90
2019-06-26T13:03:17.521Z,32.90
2019-06-26T13:05:47.448Z,33.00
2019-06-26T13:08:17.340Z,33.20
2019-06-26T13:10:50.160Z,33.30
2019-06-26T13:13:18.760Z,33.40
2019-06-26T13:15:51.073Z,33.30
2019-06-26T13:18:20.494Z,33.00
2019-06-26T13:20:53.352Z,32.90
2019-06-26T13:23:22.000Z,32.90
2019-06-26T13:28:21.124Z,32.90
2019-06-26T13:30:53.314Z,32.80
2019-06-26T13:33:22.645Z,32.90
2019-06-26T13:35:52.796Z,33.10
2019-06-26T13:38:22.788Z,33.30
2019-06-26T13:40:52.830Z,33.40
2019-06-26T13:43:22.849Z,33.10
2019-06-26T13:45:52.838Z,33.10
2019-06-26T13:48:22.803Z,33.30
2019-06-26T13:53:23.822Z,33.10
2019-06-26T13:55:53.758Z,32.90
2019-06-26T13:58:23.557Z,32.90
2019-06-26T14:00:54.661Z,32.90
2019-06-26T14:03:24.547Z,32.60
2019-06-26T14:05:54.341Z,32.50
2019-06-26T14:08:24.405Z,32.40
2019-06-26T14:10:54.404Z,32.70
2019-06-26T14:13:24.291Z,32.90
2019-06-26T14:15:54.129Z,33.00
2019-06-26T14:18:24.009Z,32.90
2019-06-26T14:20:56.337Z,33.10
2019-06-26T14:25:55.460Z,33.00
2019-06-26T14:28:25.315Z,33.00
2019-06-26T14:33:24.629Z,32.90
2019-06-26T14:35:54.569Z,32.90
2019-06-26T14:38:24.382Z,32.90
2019-06-26T14:43:24.123Z,32.40
2019-06-26T14:45:54.084Z,32.40
2019-06-26T14:50:53.245Z,32.70
2019-06-26T14:53:23.045Z,32.70
2019-06-26T14:55:52.980Z,32.60
2019-06-26T14:58:22.921Z,32.50
2019-06-26T15:03:22.343Z,32.40
2019-06-26T15:05:52.289Z,32.30
2019-06-26T15:08:22.248Z,32.40
2019-06-26T15:10:52.357Z,32.40
2019-06-26T15:15:54.637Z,32.40
2019-06-26T15:18:23.289Z,32.50
2019-06-26T15:20:53.136Z,32.50
2019-06-26T15:23:23.070Z,32.40
2019-06-26T15:28:22.377Z,32.50
2019-06-26T15:30:52.269Z,32.50
2019-06-26T15:33:22.074Z,32.60
2019-06-26T15:35:51.953Z,32.40
2019-06-26T15:38:21.804Z,32.40
2019-06-26T15:40:51.797Z,32.20
2019-06-26T15:43:21.643Z,32.00
2019-06-26T15:45:51.585Z,31.80
2019-06-26T15:48:21.674Z,31.70
2019-06-26T15:50:52.946Z,31.80
2019-06-26T15:53:24.811Z,31.90
2019-06-26T15:55:54.655Z,32.00
2019-06-26T16:00:55.527Z,32.10
2019-06-26T16:03:25.453Z,32.00
2019-06-26T16:05:56.974Z,32.10
2019-06-26T16:08:26.947Z,32.30
2019-06-26T16:13:25.959Z,32.40
2019-06-26T16:15:56.151Z,32.30
2019-06-26T16:18:34.122Z,32.40
2019-06-26T16:21:04.157Z,32.40
2019-06-26T16:23:34.019Z,32.50
2019-06-26T16:26:04.133Z,32.30
2019-06-26T16:33:32.790Z,32.30
2019-06-26T16:38:31.953Z,32.20
2019-06-26T16:43:31.136Z,32.20
2019-06-26T16:46:00.925Z,32.10
2019-06-26T16:48:30.725Z,32.10
2019-06-26T16:51:00.523Z,32.00
2019-06-26T16:58:36.182Z,32.00
2019-06-26T17:03:35.797Z,31.90
2019-06-26T17:06:05.774Z,31.90
2019-06-26T17:08:35.642Z,31.90
2019-06-26T17:11:05.606Z,31.90
2019-06-26T17:13:35.489Z,31.70
2019-06-26T17:16:05.513Z,31.70
2019-06-26T17:18:35.334Z,31.70
2019-06-26T17:21:05.320Z,31.50
2019-06-26T17:23:35.114Z,31.40
2019-06-26T17:26:04.994Z,31.40
2019-06-26T17:28:34.949Z,31.30
2019-06-26T17:31:06.847Z,31.30
2019-06-26T17:33:36.661Z,31.20
2019-06-26T17:36:06.520Z,31.20
2019-06-26T17:38:36.339Z,31.10
2019-06-26T17:41:06.268Z,31.10
2019-06-26T17:51:04.228Z,31.00
2019-06-26T17:53:34.113Z,30.90
2019-06-26T17:56:04.095Z,30.70
2019-06-26T17:58:33.900Z,30.60
2019-06-26T18:01:03.711Z,30.60
2019-06-26T18:03:33.505Z,30.50
2019-06-26T18:06:03.457Z,30.50
2019-06-26T18:08:33.252Z,30.50
2019-06-26T18:11:03.239Z,30.50
2019-06-26T18:13:33.118Z,30.40
2019-06-26T18:16:04.528Z,30.40
2019-06-26T18:21:03.765Z,30.30
2019-06-26T18:23:38.330Z,30.20
2019-06-26T18:26:13.088Z,30.10
2019-06-26T18:28:36.778Z,29.90
2019-06-26T18:31:06.750Z,30.00
2019-06-26T18:36:06.327Z,29.80
2019-06-26T18:38:36.150Z,29.70
2019-06-26T18:41:06.029Z,29.60
2019-06-26T18:43:35.855Z,29.60
2019-06-26T18:48:35.305Z,29.30
2019-06-26T18:53:34.456Z,29.00
2019-06-26T18:56:04.632Z,28.90
2019-06-26T18:58:34.459Z,28.70
2019-06-26T19:01:04.353Z,28.50
2019-06-26T19:03:34.705Z,28.30
2019-06-26T19:06:04.601Z,28.20
2019-06-26T19:08:34.428Z,28.10
2019-06-26T19:11:04.424Z,28.00
2019-06-26T19:13:34.361Z,27.90
2019-06-26T19:16:04.782Z,27.80
2019-06-26T19:18:34.845Z,27.80
2019-06-26T19:21:04.877Z,27.90
2019-06-26T19:23:34.709Z,27.80
2019-06-26T19:26:04.708Z,27.70
2019-06-26T19:28:35.625Z,27.60
2019-06-26T19:31:05.638Z,27.60
2019-06-26T19:33:35.476Z,27.60
2019-06-26T19:36:05.456Z,27.50
2019-06-26T19:41:08.358Z,27.40
2019-06-26T19:43:36.718Z,27.40
2019-06-26T19:46:06.625Z,27.30
2019-06-26T19:48:36.526Z,27.20
2019-06-26T19:51:06.954Z,27.10
2019-06-26T19:53:36.753Z,27.00
2019-06-26T19:58:35.989Z,26.90
2019-06-26T20:01:06.233Z,26.90
2019-06-26T20:03:36.429Z,26.80
2019-06-26T20:06:06.441Z,26.80
2019-06-26T20:08:53.024Z,26.70
2019-06-26T20:11:13.721Z,26.60
2019-06-26T20:13:43.533Z,26.50
2019-06-26T20:16:14.938Z,26.50
2019-06-26T20:18:44.793Z,26.40
2019-06-26T20:21:14.770Z,26.50
2019-06-26T20:23:44.723Z,26.50
2019-06-26T20:26:14.849Z,26.60
2019-06-26T20:28:46.324Z,26.50
2019-06-26T20:31:17.454Z,26.50
2019-06-26T20:33:47.731Z,26.40
2019-06-26T20:43:49.734Z,26.30
2019-06-26T20:48:57.215Z,26.30
2019-06-26T20:56:25.978Z,26.00
2019-06-26T21:01:25.159Z,25.70
2019-06-26T21:03:54.993Z,25.60
2019-06-26T21:06:24.928Z,25.50
2019-06-26T21:08:54.821Z,25.50
2019-06-26T21:11:24.662Z,25.50
2019-06-26T21:13:54.502Z,25.40
2019-06-26T21:16:24.346Z,25.40
2019-06-26T21:18:54.146Z,25.30
2019-06-26T21:21:24.105Z,25.30
2019-06-26T21:23:53.988Z,25.20
2019-06-26T21:26:23.873Z,25.20
2019-06-26T21:28:53.709Z,25.10
2019-06-26T21:31:23.604Z,25.10
2019-06-26T21:33:53.542Z,25.00
2019-06-26T21:36:23.317Z,25.00
2019-06-26T21:41:22.512Z,25.00
2019-06-26T21:43:52.437Z,25.10
2019-06-26T21:46:22.336Z,25.00
2019-06-26T21:48:52.545Z,25.00
2019-06-26T21:51:22.381Z,25.00
2019-06-26T21:53:52.298Z,25.00
2019-06-26T21:56:22.193Z,25.00
2019-06-26T21:58:52.041Z,25.00
2019-06-26T22:01:22.058Z,25.00
2019-06-26T22:03:51.943Z,25.00
2019-06-26T22:06:21.844Z,24.90
2019-06-26T22:08:51.790Z,24.80
2019-06-26T22:11:21.671Z,24.80
2019-06-26T22:13:51.496Z,24.70
2019-06-26T22:18:50.605Z,24.60
2019-06-26T22:21:20.404Z,24.70
2019-06-26T22:23:50.255Z,24.60
2019-06-26T22:26:20.194Z,24.50
2019-06-26T22:28:50.120Z,24.50
2019-06-26T22:31:20.015Z,24.40
2019-06-26T22:33:49.819Z,24.40
2019-06-26T22:36:19.626Z,24.40
2019-06-26T22:38:49.632Z,24.40
2019-06-26T22:41:19.473Z,24.40
2019-06-26T22:43:49.434Z,24.40
2019-06-26T22:46:19.241Z,24.30
2019-06-26T22:48:49.454Z,24.30
2019-06-26T22:51:19.431Z,24.30
2019-06-26T22:53:49.230Z,24.30
2019-06-26T22:58:48.338Z,24.20
2019-06-26T23:01:18.162Z,24.10
2019-06-26T23:03:48.052Z,19.80
2019-06-26T23:06:17.955Z,24.10
2019-06-26T23:08:47.863Z,24.10
2019-06-26T23:11:17.671Z,24.00
2019-06-26T23:13:47.622Z,23.90
2019-06-26T23:16:17.536Z,23.80
2019-06-26T23:18:47.351Z,23.70
2019-06-26T23:21:17.174Z,23.60
2019-06-26T23:23:46.991Z,23.60
2019-06-26T23:26:24.117Z,23.60
2019-06-26T23:28:48.624Z,23.60
2019-06-26T23:31:18.468Z,23.50
2019-06-26T23:33:48.274Z,23.40
2019-06-26T23:36:18.170Z,23.40
2019-06-26T23:38:48.022Z,23.30
2019-06-26T23:41:18.171Z,23.30
2019-06-26T23:43:48.123Z,23.30
2019-06-26T23:46:17.946Z,23.20
2019-06-26T23:48:48.025Z,23.10
2019-06-26T23:51:17.836Z,23.10
2019-06-26T23:53:47.716Z,23.00
2019-06-26T23:56:17.617Z,23.00
2019-06-26T23:58:47.423Z,23.00
